Terminal Aerodrome Forecast
Issued by NWS Memphis, TN

Home | Current Version | Previous Version | Text Only | Print | Product List | Glossary On
Versions: 1 2 3 4 5 6 7 8 9 10 11 12
000
FTUS44 KMEG 210532
TAFJBR
TAF
KJBR 210532Z 2106/2206 22006KT P6SM FEW250
     FM211600 21006KT P6SM FEW040
     FM220100 22003KT P6SM SKC=

USA.gov is the U.S. government's official web portal to all federal, state and local government web resources and services.